Time;durP1;ratioP1;P1;durP2;ratioP2;P2;SDS_P1;SDS_P2;PMS_P1;PMS_P2;Temp;Humidity;BMP_temperature;BMP_pressure;BME280_temperature;BME280_humidity;BME280_pressure;Samples;Min_cycle;Max_cycle;Signal;HPM_P1;HPM_P2
2023/02/11 00:00:03;;;;;;;5.07;2.53;;;;;;;-2.65;63.46;103354.66;5070478;28;20032;-83
2023/02/11 00:02:30;;;;;;;3.08;2.35;;;;;;;-2.51;63.35;103368.00;5087361;28;20021;-83
2023/02/11 00:04:56;;;;;;;1.75;1.23;;;;;;;-2.38;63.17;103375.38;5069947;28;20035;-83
2023/02/11 00:07:21;;;;;;;1.50;1.40;;;;;;;-2.45;62.35;103342.94;5070434;28;20040;-82
2023/02/11 00:09:47;;;;;;;1.90;1.75;;;;;;;-2.33;62.24;103353.66;5087090;28;20048;-83
2023/02/11 00:12:12;;;;;;;1.55;1.45;;;;;;;-2.18;61.50;103366.19;5070167;28;20406;-83
2023/02/11 00:14:38;;;;;;;5.60;3.00;;;;;;;-2.16;61.46;103371.34;5070354;28;20037;-83
2023/02/11 00:17:03;;;;;;;1.95;1.30;;;;;;;-2.15;61.33;103361.28;5087146;28;20040;-83
2023/02/11 00:19:28;;;;;;;6.55;1.65;;;;;;;-1.97;60.58;103375.59;5069839;28;20088;-83
2023/02/11 00:21:54;;;;;;;5.45;2.50;;;;;;;-2.17;60.34;103331.53;5070144;28;20025;-83
2023/02/11 00:24:19;;;;;;;1.38;1.23;;;;;;;-1.99;59.92;103367.91;5071911;28;20485;-83
2023/02/11 00:26:45;;;;;;;4.22;2.08;;;;;;;-1.97;60.77;103365.44;5070090;28;20062;-83
2023/02/11 00:29:10;;;;;;;1.67;1.58;;;;;;;-1.95;59.97;103368.94;5069928;28;20029;-83
2023/02/11 00:31:36;;;;;;;0.98;0.93;;;;;;;-2.00;60.01;103370.38;5069954;28;20036;-83
2023/02/11 00:34:01;;;;;;;2.10;1.98;;;;;;;-2.03;60.03;103369.44;5069912;28;20509;-83
2023/02/11 00:36:27;;;;;;;1.35;0.95;;;;;;;-2.04;60.25;103361.78;5086867;28;20032;-83
2023/02/11 00:38:53;;;;;;;1.50;1.10;;;;;;;-2.21;59.52;103355.91;5086956;28;20039;-83
2023/02/11 00:41:19;;;;;;;2.13;1.92;;;;;;;-2.00;59.72;103375.47;5086710;28;20491;-83
2023/02/11 00:43:44;;;;;;;5.20;1.80;;;;;;;-1.99;59.41;103361.97;5086590;28;20474;-83
2023/02/11 00:46:10;;;;;;;2.95;1.40;;;;;;;-1.99;59.58;103369.59;5086633;28;20586;-83
2023/02/11 00:48:35;;;;;;;1.55;1.35;;;;;;;-2.06;59.47;103364.25;5069136;28;20028;-83
2023/02/11 00:51:01;;;;;;;1.30;1.20;;;;;;;-2.05;59.68;103362.56;5069395;28;20095;-83
2023/02/11 00:53:26;;;;;;;1.27;1.05;;;;;;;-2.09;59.14;103353.94;5086243;28;20461;-83
2023/02/11 00:55:52;;;;;;;1.48;1.38;;;;;;;-2.02;59.64;103373.72;5069408;28;20056;-83
2023/02/11 00:58:17;;;;;;;0.68;0.68;;;;;;;-2.02;59.47;103366.13;5069308;28;20039;-83
2023/02/11 01:00:43;;;;;;;0.98;0.95;;;;;;;-2.02;59.42;103368.66;5086310;28;20082;-83
2023/02/11 01:03:08;;;;;;;2.50;2.30;;;;;;;-2.12;59.33;103358.88;5086055;28;20036;-83
2023/02/11 01:05:34;;;;;;;1.88;1.67;;;;;;;-2.05;58.94;103354.97;5052749;28;20425;-83
2023/02/11 01:07:59;;;;;;;2.58;1.88;;;;;;;-2.07;59.19;103352.31;5085554;28;20052;-83
2023/02/11 01:10:24;;;;;;;1.30;1.20;;;;;;;-1.98;58.64;103373.84;5086064;28;20488;-83
2023/02/11 01:12:50;;;;;;;0.60;0.60;;;;;;;-2.00;59.01;103362.78;5086355;28;20033;-83
2023/02/11 01:15:16;;;;;;;1.25;1.15;;;;;;;-2.14;58.97;103337.66;5086107;28;20028;-83
2023/02/11 01:17:41;;;;;;;1.83;1.48;;;;;;;-2.04;58.65;103357.56;5069118;28;20028;-83
2023/02/11 01:20:10;;;;;;;2.85;1.75;;;;;;;-2.21;59.06;103328.00;5069248;28;20442;-83
2023/02/11 01:22:38;;;;;;;2.40;1.42;;;;;;;-2.02;59.22;103355.97;5086177;28;20024;-83
2023/02/11 01:25:04;;;;;;;2.60;2.00;;;;;;;-2.06;59.59;103343.94;5069660;28;20024;-83
2023/02/11 01:27:30;;;;;;;3.13;1.77;;;;;;;-1.94;58.64;103351.25;5086211;28;20043;-83
2023/02/11 01:29:55;;;;;;;1.08;0.93;;;;;;;-1.90;58.14;103350.56;5068905;28;20028;-83
2023/02/11 01:32:21;;;;;;;4.57;2.95;;;;;;;-1.90;58.12;103349.72;5085614;28;20029;-83
2023/02/11 01:34:46;;;;;;;1.58;1.48;;;;;;;-1.90;58.32;103335.34;5069242;28;20037;-83
2023/02/11 01:37:11;;;;;;;0.80;0.80;;;;;;;-1.93;58.37;103340.28;5085984;28;20503;-83
2023/02/11 01:39:37;;;;;;;1.95;1.77;;;;;;;-2.05;58.68;103310.16;5069076;28;20025;-83
2023/02/11 01:42:02;;;;;;;1.88;1.10;;;;;;;-1.89;58.16;103336.22;5085752;28;20035;-83
2023/02/11 01:44:28;;;;;;;1.45;1.23;;;;;;;-1.87;57.91;103332.97;5069141;28;20059;-83
2023/02/11 01:46:53;;;;;;;0.73;0.60;;;;;;;-1.93;57.95;103320.00;5070003;28;20043;-83
2023/02/11 01:49:50;;;;;;;1.00;0.90;;;;;;;-1.92;57.74;103319.19;5069033;28;20032;-83
2023/02/11 01:52:24;;;;;;;4.07;1.80;;;;;;;-2.21;58.46;103287.44;5056467;28;20048;-83
2023/02/11 01:57:46;;;;;;;0.77;0.47;;;;;;;-1.94;58.47;103313.19;5082733;28;20125;-83
2023/02/11 02:00:16;;;;;;;3.38;1.27;;;;;;;-1.87;58.01;103321.94;5068785;28;20059;-83
2023/02/11 02:02:57;;;;;;;1.90;1.80;;;;;;;-2.09;58.50;103298.13;5085240;28;20027;-83
2023/02/11 02:05:39;;;;;;;2.78;1.98;;;;;;;-2.06;58.63;103308.44;5084436;28;20107;-83
2023/02/11 02:08:49;;;;;;;1.13;1.02;;;;;;;-2.12;58.87;103302.22;5051760;28;20579;-83
2023/02/11 02:11:14;;;;;;;1.42;0.90;;;;;;;-2.06;58.33;103322.78;5064614;28;20411;-83
2023/02/11 02:13:39;;;;;;;2.78;1.83;;;;;;;-1.95;58.26;103321.59;5085798;28;20035;-83
2023/02/11 02:16:12;;;;;;;1.55;1.45;;;;;;;-1.97;57.52;103314.69;5068445;28;20036;-83
2023/02/11 02:18:52;;;;;;;1.75;0.90;;;;;;;-2.12;58.43;103285.31;5068575;28;20028;-83
2023/02/11 02:21:20;;;;;;;1.98;1.67;;;;;;;-1.92;58.17;103325.94;5070757;28;20498;-83
2023/02/11 02:24:13;;;;;;;0.95;0.93;;;;;;;-2.12;58.93;103298.00;5089179;28;20025;-83
2023/02/11 02:27:16;;;;;;;5.60;2.28;;;;;;;-1.96;58.36;103321.53;5073854;28;20104;-83
2023/02/11 02:30:08;;;;;;;4.63;2.63;;;;;;;-1.99;57.74;103323.91;5073218;28;20115;-82
2023/02/11 02:32:43;;;;;;;0.75;0.75;;;;;;;-1.96;57.74;103327.47;5073237;28;20029;-83
2023/02/11 02:35:24;;;;;;;1.38;1.20;;;;;;;-1.97;57.17;103323.19;5089020;28;20033;-83
2023/02/11 02:37:53;;;;;;;3.10;1.48;;;;;;;-2.06;57.44;103318.59;5088971;28;20060;-83
2023/02/11 02:40:22;;;;;;;0.55;0.47;;;;;;;-2.16;57.68;103303.75;5088697;28;20082;-83
2023/02/11 02:42:48;;;;;;;2.00;1.80;;;;;;;-2.06;57.82;103315.19;5072179;28;20037;-83
2023/02/11 02:45:14;;;;;;;2.75;2.42;;;;;;;-2.09;57.19;103305.75;5088324;28;20527;-83
2023/02/11 02:47:39;;;;;;;1.25;1.15;;;;;;;-2.18;57.88;103315.47;5071928;28;20037;-83
2023/02/11 02:50:05;;;;;;;2.10;1.70;;;;;;;-2.21;57.75;103295.03;5071770;28;20036;-83
2023/02/11 02:53:00;;;;;;;0.98;0.95;;;;;;;-2.14;57.78;103309.75;5072205;28;20029;-83
2023/02/11 02:55:43;;;;;;;1.75;1.42;;;;;;;-2.30;57.56;103287.00;5063764;28;20033;-83
2023/02/11 02:58:23;;;;;;;2.47;1.83;;;;;;;-2.22;57.47;103310.19;5086502;28;20032;-83
2023/02/11 03:00:56;;;;;;;0.85;0.85;;;;;;;-2.21;57.28;103310.25;5055020;28;20039;-83
2023/02/11 03:03:42;;;;;;;4.55;2.38;;;;;;;-2.20;57.42;103304.38;5071409;28;20515;-83
2023/02/11 03:06:31;;;;;;;1.33;1.10;;;;;;;-2.25;57.39;103282.16;5065444;28;20048;-83
2023/02/11 03:09:01;;;;;;;3.20;1.70;;;;;;;-2.31;57.29;103270.94;5088082;28;20533;-83
2023/02/11 03:11:27;;;;;;;2.40;1.08;;;;;;;-2.07;57.48;103305.81;5087911;28;20487;-83
2023/02/11 03:13:52;;;;;;;1.77;1.17;;;;;;;-2.07;58.22;103311.75;5054544;28;20058;-82
2023/02/11 03:16:20;;;;;;;1.60;1.50;;;;;;;-2.10;57.15;103306.53;5071311;28;20033;-83
2023/02/11 03:18:51;;;;;;;2.30;2.03;;;;;;;-2.07;57.18;103303.25;5087836;28;20430;-83
2023/02/11 03:21:17;;;;;;;1.67;1.23;;;;;;;-2.34;57.25;103269.94;5087985;28;20036;-83
2023/02/11 03:23:51;;;;;;;1.60;1.08;;;;;;;-2.20;57.05;103294.22;5071383;28;20044;-83
2023/02/11 03:26:30;;;;;;;1.30;1.20;;;;;;;-2.13;57.24;103310.63;5087830;28;20032;-82
2023/02/11 03:29:05;;;;;;;2.53;2.30;;;;;;;-2.24;57.78;103299.97;5054171;28;20513;-82
2023/02/11 03:31:55;;;;;;;1.13;0.95;;;;;;;-2.12;57.52;103312.34;5070844;28;20032;-83
2023/02/11 03:34:27;;;;;;;1.42;1.05;;;;;;;-2.13;57.37;103306.41;5087889;28;20483;-83
2023/02/11 03:36:58;;;;;;;2.55;2.13;;;;;;;-2.08;57.29;103294.78;5087437;28;20071;-83
2023/02/11 03:39:32;;;;;;;1.73;1.60;;;;;;;-2.16;57.23;103296.13;5070798;28;20029;-82
2023/02/11 03:41:57;;;;;;;2.35;2.15;;;;;;;-2.18;57.22;103292.63;5070605;28;20384;-83
2023/02/11 03:44:23;;;;;;;5.95;3.83;;;;;;;-2.08;56.61;103288.84;5087751;28;20067;-83
2023/02/11 03:46:49;;;;;;;1.40;1.27;;;;;;;-2.12;56.79;103297.13;5070631;28;20123;-83
2023/02/11 03:49:16;;;;;;;3.70;2.80;;;;;;;-2.41;56.84;103257.75;5087307;28;20548;-83
2023/02/11 03:51:42;;;;;;;2.17;1.98;;;;;;;-2.37;56.92;103260.50;5070689;28;20123;-83
2023/02/11 03:54:10;;;;;;;0.52;0.52;;;;;;;-2.17;56.65;103290.97;5070972;28;20020;-83
2023/02/11 03:56:40;;;;;;;2.33;1.58;;;;;;;-2.28;56.76;103285.41;5087404;28;20085;-83
2023/02/11 03:59:06;;;;;;;1.52;1.42;;;;;;;-2.22;56.97;103289.91;5087891;28;20074;-83
2023/02/11 04:01:32;;;;;;;1.80;1.70;;;;;;;-2.35;57.17;103268.19;5087397;28;20028;-83
2023/02/11 04:03:57;;;;;;;2.55;1.75;;;;;;;-2.34;57.11;103270.78;5070241;28;20036;-83
2023/02/11 04:06:23;;;;;;;4.70;1.80;;;;;;;-2.22;56.74;103284.81;5070503;28;20037;-83
2023/02/11 04:08:48;;;;;;;1.52;1.42;;;;;;;-2.27;56.63;103284.59;5086861;28;20466;-83
2023/02/11 04:11:14;;;;;;;1.33;1.23;;;;;;;-2.33;56.46;103276.72;5069776;28;20026;-83
2023/02/11 04:13:39;;;;;;;2.10;1.52;;;;;;;-2.26;56.39;103283.84;5069939;28;20396;-83
2023/02/11 04:16:05;;;;;;;1.48;1.20;;;;;;;-2.34;56.44;103259.78;5087022;28;20025;-82
2023/02/11 04:18:30;;;;;;;2.28;1.60;;;;;;;-2.43;56.47;103244.16;5070005;28;20162;-83
2023/02/11 04:20:56;;;;;;;0.98;0.73;;;;;;;-2.25;56.51;103284.69;5087026;28;20040;-82
2023/02/11 04:23:21;;;;;;;1.38;1.27;;;;;;;-2.25;56.37;103279.63;5070038;28;20064;-83
2023/02/11 04:25:48;;;;;;;1.35;1.27;;;;;;;-2.29;57.01;103278.59;5086455;28;20608;-83
2023/02/11 04:28:13;;;;;;;1.45;1.10;;;;;;;-2.28;57.42;103266.78;5086922;28;20047;-83
2023/02/11 04:30:39;;;;;;;1.77;1.38;;;;;;;-2.49;56.66;103237.13;5070086;28;20021;-83
2023/02/11 04:33:04;;;;;;;2.15;1.02;;;;;;;-2.38;57.65;103258.75;5069993;28;20039;-83
2023/02/11 04:35:29;;;;;;;1.90;1.48;;;;;;;-2.28;57.29;103265.13;5086878;28;20039;-83
2023/02/11 04:37:55;;;;;;;3.70;3.35;;;;;;;-2.32;56.75;103266.66;5053221;28;20036;-82
2023/02/11 04:40:21;;;;;;;1.63;1.52;;;;;;;-2.35;57.30;103265.66;5086372;28;20488;-83
2023/02/11 04:42:47;;;;;;;2.15;1.23;;;;;;;-2.48;57.25;103235.44;5085958;28;20048;-83
2023/02/11 04:45:13;;;;;;;2.03;1.58;;;;;;;-2.45;56.92;103233.94;5052901;28;20032;-83
2023/02/11 04:47:38;;;;;;;2.72;2.05;;;;;;;-2.47;57.43;103234.63;5086637;28;20033;-83
2023/02/11 04:50:04;;;;;;;4.65;2.50;;;;;;;-2.36;57.14;103254.66;5086553;28;20024;-83
2023/02/11 04:52:29;;;;;;;2.45;2.17;;;;;;;-2.49;56.94;103242.19;5052983;28;20035;-83
2023/02/11 04:54:55;;;;;;;2.38;1.67;;;;;;;-2.57;56.86;103224.88;5052591;28;20503;-83
2023/02/11 04:57:20;;;;;;;1.50;1.40;;;;;;;-2.50;56.79;103247.19;5069098;28;20419;-82
2023/02/11 04:59:45;;;;;;;1.52;1.42;;;;;;;-2.61;57.08;103242.50;5086143;28;20043;-82
2023/02/11 05:02:11;;;;;;;2.45;1.48;;;;;;;-2.43;57.28;103266.97;5086045;28;20384;-82
2023/02/11 05:04:36;;;;;;;4.05;3.00;;;;;;;-2.65;56.67;103215.28;5086299;28;20024;-82
2023/02/11 05:07:02;;;;;;;2.78;1.02;;;;;;;-2.52;56.95;103264.00;5052775;28;20031;-83
2023/02/11 05:09:27;;;;;;;2.20;1.10;;;;;;;-2.42;57.10;103261.97;5068616;28;20492;-82
2023/02/11 05:11:53;;;;;;;3.63;1.33;;;;;;;-2.46;57.03;103270.22;5086239;28;20041;-82
2023/02/11 05:14:18;;;;;;;2.05;1.88;;;;;;;-2.53;56.84;103250.47;5069399;28;20027;-83
2023/02/11 05:16:44;;;;;;;1.20;0.85;;;;;;;-2.49;57.33;103271.72;5069477;28;20078;-83
2023/02/11 05:19:09;;;;;;;1.45;1.33;;;;;;;-2.49;57.26;103271.72;5069319;28;20031;-82
2023/02/11 05:21:34;;;;;;;1.25;0.95;;;;;;;-2.57;57.69;103261.22;5086020;28;20048;-83
2023/02/11 05:24:00;;;;;;;1.25;1.15;;;;;;;-2.50;57.13;103267.47;5085817;28;20036;-83
2023/02/11 05:26:25;;;;;;;3.53;2.88;;;;;;;-2.67;57.36;103249.78;5069346;28;20036;-82
2023/02/11 05:28:51;;;;;;;1.75;1.60;;;;;;;-2.58;57.71;103273.84;5086008;28;20032;-82
2023/02/11 05:31:17;;;;;;;1.35;1.25;;;;;;;-2.65;57.32;103272.69;5069141;28;20529;-83
2023/02/11 05:33:42;;;;;;;1.42;1.33;;;;;;;-2.74;57.69;103268.06;5069265;28;20037;-82
2023/02/11 05:36:09;;;;;;;3.35;2.40;;;;;;;-2.65;57.48;103267.63;5068998;28;20032;-83
2023/02/11 05:38:35;;;;;;;2.65;1.95;;;;;;;-2.67;57.62;103270.06;5085623;28;20058;-83
2023/02/11 05:41:00;;;;;;;2.10;1.67;;;;;;;-2.72;57.51;103271.53;5085954;28;20103;-83
2023/02/11 05:43:26;;;;;;;2.25;1.33;;;;;;;-2.69;57.69;103276.72;5069118;28;20477;-82
2023/02/11 05:45:51;;;;;;;1.98;1.50;;;;;;;-2.76;57.86;103254.41;5085926;28;20121;-83
2023/02/11 05:48:17;;;;;;;2.75;1.83;;;;;;;-2.58;57.76;103284.84;5069098;28;20033;-83
2023/02/11 05:50:42;;;;;;;1.95;1.75;;;;;;;-2.76;58.15;103259.50;5068742;28;20487;-83
2023/02/11 05:53:08;;;;;;;3.15;2.20;;;;;;;-2.71;58.08;103280.88;5068521;28;20036;-83
2023/02/11 05:55:33;;;;;;;2.22;1.73;;;;;;;-2.79;58.47;103263.56;5086773;28;20020;-83
2023/02/11 05:57:59;;;;;;;2.55;1.88;;;;;;;-2.63;57.95;103284.63;5072912;28;20032;-83
2023/02/11 06:00:24;;;;;;;3.05;1.85;;;;;;;-2.82;57.88;103258.34;5089568;28;20039;-82
2023/02/11 06:02:50;;;;;;;6.13;3.03;;;;;;;-2.63;58.45;103284.63;5072727;28;20487;-83
2023/02/11 06:05:15;;;;;;;3.20;1.48;;;;;;;-2.57;58.26;103288.25;5089611;28;20043;-83
2023/02/11 06:07:41;;;;;;;2.80;2.00;;;;;;;-2.47;57.80;103290.41;5072099;28;20079;-82
2023/02/11 06:10:07;;;;;;;2.30;1.67;;;;;;;-2.50;58.14;103285.22;5072585;28;20025;-82
2023/02/11 06:12:32;;;;;;;3.78;3.38;;;;;;;-2.68;58.71;103253.13;5072582;28;20025;-83
2023/02/11 06:14:58;;;;;;;2.38;2.25;;;;;;;-2.53;58.56;103278.34;5089801;28;20525;-83
2023/02/11 06:17:24;;;;;;;1.48;1.38;;;;;;;-2.60;58.33;103269.56;5089805;28;20029;-83
2023/02/11 06:19:49;;;;;;;1.65;1.55;;;;;;;-2.43;58.43;103279.63;5055808;28;20431;-84
2023/02/11 06:22:15;;;;;;;2.40;2.20;;;;;;;-2.38;58.64;103293.38;5072110;28;20029;-85
2023/02/11 06:24:41;;;;;;;1.58;1.48;;;;;;;-2.52;58.38;103272.47;5072533;28;20610;-83
2023/02/11 06:27:06;;;;;;;2.53;2.33;;;;;;;-2.48;58.67;103269.25;5089650;28;20028;-83
2023/02/11 06:29:32;;;;;;;2.55;1.90;;;;;;;-2.38;58.52;103273.09;5089035;28;20059;-82
2023/02/11 06:31:57;;;;;;;3.47;3.17;;;;;;;-2.39;58.30;103286.56;5072093;28;20086;-83
2023/02/11 06:34:23;;;;;;;4.25;2.88;;;;;;;-2.31;58.59;103296.28;5072467;28;20028;-83
2023/02/11 06:36:48;;;;;;;1.80;1.70;;;;;;;-2.28;58.99;103290.47;5088665;28;20032;-82
2023/02/11 06:39:14;;;;;;;2.10;1.92;;;;;;;-2.15;58.99;103291.94;5071954;28;20024;-83
2023/02/11 06:41:39;;;;;;;1.65;1.55;;;;;;;-2.10;58.56;103293.00;5088728;28;20029;-84
2023/02/11 06:44:05;;;;;;;1.08;1.02;;;;;;;-2.24;58.19;103261.06;5071971;28;20028;-83
2023/02/11 06:46:30;;;;;;;1.70;1.48;;;;;;;-2.09;58.48;103267.69;5072288;28;20063;-83
2023/02/11 06:48:56;;;;;;;2.65;2.05;;;;;;;-1.93;58.52;103283.63;5071834;28;20029;-82
2023/02/11 06:51:21;;;;;;;3.65;3.00;;;;;;;-1.89;58.65;103270.25;5071680;28;20039;-83
2023/02/11 06:53:47;;;;;;;4.85;4.28;;;;;;;-1.80;58.53;103293.50;5071670;28;20533;-83
2023/02/11 06:56:17;;;;;;;3.67;2.78;;;;;;;-1.75;58.28;103280.22;5088434;28;20027;-83
2023/02/11 06:58:43;;;;;;;3.53;2.50;;;;;;;-1.60;58.47;103300.31;5071459;28;20082;-83
2023/02/11 07:01:10;;;;;;;1.88;1.77;;;;;;;-1.50;58.30;103292.28;5071445;28;20028;-83
2023/02/11 07:03:37;;;;;;;2.47;2.28;;;;;;;-1.55;58.87;103267.53;5071579;28;20487;-83
2023/02/11 07:06:04;;;;;;;5.57;4.25;;;;;;;-1.25;57.99;103295.91;5088045;28;20043;-83
2023/02/11 07:08:30;;;;;;;5.30;2.45;;;;;;;-1.22;57.72;103293.47;5087980;28;20583;-83
2023/02/11 07:10:55;;;;;;;2.10;1.80;;;;;;;-1.12;57.33;103285.44;5071342;28;20128;-83
2023/02/11 07:13:21;;;;;;;1.35;1.17;;;;;;;-1.07;57.31;103265.31;5088477;28;20495;-83
2023/02/11 07:15:46;;;;;;;1.48;1.38;;;;;;;-0.98;56.51;103261.47;5054806;28;20036;-83
2023/02/11 07:18:11;;;;;;;2.25;2.15;;;;;;;-0.81;56.74;103274.84;5088280;28;20039;-83
2023/02/11 07:20:40;;;;;;;1.63;1.52;;;;;;;-0.76;55.87;103285.22;5071079;28;20025;-83
2023/02/11 07:23:05;;;;;;;1.52;1.38;;;;;;;-0.71;56.33;103273.53;5071522;28;20093;-83
2023/02/11 07:25:30;;;;;;;3.53;2.92;;;;;;;-0.55;55.66;103280.09;5054535;28;20487;-83
2023/02/11 07:27:56;;;;;;;3.78;2.20;;;;;;;-0.63;55.76;103267.94;5088208;28;20035;-83
2023/02/11 07:30:21;;;;;;;3.17;1.25;;;;;;;-0.42;55.83;103269.59;5087972;28;20029;-83
2023/02/11 07:32:47;;;;;;;1.90;1.80;;;;;;;-0.41;55.21;103268.78;5054339;28;20504;-83
2023/02/11 07:35:13;;;;;;;2.72;2.53;;;;;;;-0.31;54.62;103276.81;5087306;28;20028;-83
2023/02/11 07:37:40;;;;;;;3.00;2.75;;;;;;;-0.22;54.64;103275.44;5087874;28;20056;-83
2023/02/11 07:40:06;;;;;;;3.08;2.65;;;;;;;-0.07;55.00;103276.88;5070705;28;20449;-83
2023/02/11 07:42:35;;;;;;;5.05;3.47;;;;;;;-0.01;54.00;103277.09;5087461;28;20020;-82
2023/02/11 07:45:01;;;;;;;5.47;2.72;;;;;;;0.09;54.33;103270.66;5087271;28;20024;-83
2023/02/11 07:47:26;;;;;;;5.95;3.45;;;;;;;0.15;53.96;103258.16;5071177;28;20039;-83
2023/02/11 07:49:52;;;;;;;3.40;2.30;;;;;;;0.28;54.15;103273.06;5087313;28;20032;-83
2023/02/11 07:52:17;;;;;;;1.45;1.30;;;;;;;0.44;54.41;103281.25;5070807;28;20055;-83
2023/02/11 07:54:43;;;;;;;2.17;1.77;;;;;;;0.49;52.48;103275.53;5087121;28;20089;-83
2023/02/11 07:57:08;;;;;;;0.75;0.70;;;;;;;0.56;53.25;103280.00;5071066;28;20082;-83
2023/02/11 07:59:34;;;;;;;3.35;3.05;;;;;;;0.58;52.45;103277.50;5087540;28;20481;-83
2023/02/11 08:01:59;;;;;;;2.80;1.88;;;;;;;0.36;51.89;103231.72;5053817;28;20028;-83
2023/02/11 08:04:25;;;;;;;1.45;1.35;;;;;;;0.74;51.80;103259.38;5070224;28;20029;-83
2023/02/11 08:06:51;;;;;;;3.50;2.13;;;;;;;0.74;51.49;103254.28;5070620;28;20027;-83
2023/02/11 08:09:17;;;;;;;3.03;2.15;;;;;;;0.85;51.82;103264.81;5086860;28;20056;-83
2023/02/11 08:11:42;;;;;;;1.95;1.85;;;;;;;0.90;51.04;103252.25;5087286;28;20032;-83
2023/02/11 08:14:10;;;;;;;2.13;1.60;;;;;;;0.96;50.89;103253.31;5070659;28;20029;-83
2023/02/11 08:16:36;;;;;;;2.63;1.90;;;;;;;1.12;51.23;103259.78;5087096;28;20020;-83
2023/02/11 08:19:03;;;;;;;3.85;2.60;;;;;;;1.27;50.80;103262.78;5068995;28;20028;-82
2023/02/11 08:21:29;;;;;;;2.42;2.15;;;;;;;1.35;50.00;103258.81;5086625;28;20038;-83
2023/02/11 08:23:54;;;;;;;3.78;2.72;;;;;;;1.36;49.97;103250.31;5086991;28;20028;-82
2023/02/11 08:26:24;;;;;;;4.78;2.15;;;;;;;1.38;50.27;103248.72;5070034;28;20446;-83
2023/02/11 08:28:50;;;;;;;4.00;3.55;;;;;;;1.59;49.92;103253.59;5086070;28;20389;-82
2023/02/11 08:31:24;;;;;;;2.85;2.58;;;;;;;1.74;50.13;103242.97;5069978;28;20502;-83
2023/02/11 08:33:50;;;;;;;3.00;1.50;;;;;;;1.82;49.17;103251.72;5086175;28;20997;-83
2023/02/11 08:36:22;;;;;;;2.70;2.47;;;;;;;1.96;49.01;103247.84;5086853;28;20024;-83
2023/02/11 08:38:47;;;;;;;1.60;1.25;;;;;;;1.92;48.45;103235.84;5069698;28;20442;-83
2023/02/11 08:41:13;;;;;;;2.75;1.98;;;;;;;1.98;48.52;103233.47;5069817;28;20085;-82
2023/02/11 08:43:41;;;;;;;6.43;3.28;;;;;;;2.01;48.38;103246.31;5069652;28;20089;-83
2023/02/11 08:46:08;;;;;;;4.80;3.30;;;;;;;2.14;48.84;103231.31;5069432;28;20078;-83
2023/02/11 08:48:33;;;;;;;3.40;2.35;;;;;;;2.33;48.08;103240.34;5086515;28;20414;-83
2023/02/11 08:50:59;;;;;;;5.47;3.45;;;;;;;2.35;48.30;103231.03;5069607;28;20539;-83
2023/02/11 08:53:24;;;;;;;4.35;3.30;;;;;;;2.41;47.84;103234.63;5069269;28;20433;-83
2023/02/11 08:55:53;;;;;;;5.43;3.35;;;;;;;2.46;47.40;103227.97;5069825;28;20492;-82
2023/02/11 08:58:19;;;;;;;3.10;2.40;;;;;;;2.56;46.84;103222.25;5086218;28;20483;-82
2023/02/11 09:00:45;;;;;;;7.30;4.80;;;;;;;2.69;46.94;103231.09;5069114;28;20031;-83
2023/02/11 09:03:11;;;;;;;3.90;2.80;;;;;;;2.72;46.30;103232.84;5086639;28;20499;-82
2023/02/11 09:05:43;;;;;;;11.40;3.75;;;;;;;2.82;46.28;103232.25;5085923;28;20021;-83
2023/02/11 09:08:09;;;;;;;3.92;2.83;;;;;;;2.83;46.71;103223.75;5069025;28;20059;-82
2023/02/11 09:10:34;;;;;;;4.05;3.40;;;;;;;2.70;46.29;103222.59;5069371;28;20033;-83
2023/02/11 09:13:00;;;;;;;5.10;1.88;;;;;;;2.95;46.55;103229.19;5052651;28;20205;-83
2023/02/11 09:15:25;;;;;;;1.63;1.52;;;;;;;2.98;46.07;103228.41;5085820;28;20029;-82
2023/02/11 09:17:51;;;;;;;3.88;2.83;;;;;;;2.96;45.88;103200.25;5069053;28;20107;-83
2023/02/11 09:20:16;;;;;;;4.15;3.45;;;;;;;3.20;45.38;103229.75;5069023;28;20051;-83
2023/02/11 09:22:42;;;;;;;2.38;1.52;;;;;;;3.23;46.02;103219.59;5069286;28;20028;-83
2023/02/11 09:25:07;;;;;;;4.60;3.22;;;;;;;3.07;45.70;103206.47;5052555;28;20032;-82
2023/02/11 09:27:33;;;;;;;3.03;2.47;;;;;;;3.21;45.83;103223.81;5069081;28;20033;-82
2023/02/11 09:29:58;;;;;;;2.30;1.90;;;;;;;3.28;44.86;103213.75;5088486;28;20415;-82
2023/02/11 09:32:24;;;;;;;3.97;3.28;;;;;;;3.48;45.38;103227.00;5092851;28;20029;-83
2023/02/11 09:34:49;;;;;;;2.45;1.75;;;;;;;3.61;45.13;103228.97;5076080;28;20415;-83
2023/02/11 09:37:15;;;;;;;4.45;2.88;;;;;;;3.69;44.63;103216.34;5059084;28;20020;-83
2023/02/11 09:39:40;;;;;;;4.57;3.40;;;;;;;3.76;44.42;103217.34;5058968;28;20094;-83
2023/02/11 09:42:29;;;;;;;4.40;3.83;;;;;;;3.67;43.97;103202.66;5075591;28;20473;-83
2023/02/11 09:44:54;;;;;;;5.43;4.90;;;;;;;3.78;44.33;103195.19;5089582;28;20121;-82
2023/02/11 09:47:31;;;;;;;2.03;1.92;;;;;;;3.73;44.26;103178.00;5075617;28;20056;-83
2023/02/11 09:50:21;;;;;;;1.48;1.38;;;;;;;3.72;44.59;103163.50;5092360;28;20062;-83
2023/02/11 09:53:09;;;;;;;3.60;2.17;;;;;;;3.91;43.76;103166.41;5075925;28;20384;-82
2023/02/11 09:55:38;;;;;;;2.78;2.47;;;;;;;4.06;43.18;103176.09;5089541;28;20035;-82
2023/02/11 09:58:09;;;;;;;3.50;2.28;;;;;;;4.06;44.47;103169.28;5075716;28;20036;-82
2023/02/11 10:00:39;;;;;;;4.30;3.88;;;;;;;4.15;42.97;103182.25;5091811;28;21146;-83
2023/02/11 10:03:16;;;;;;;4.05;2.58;;;;;;;4.10;44.48;103171.06;5075323;28;20020;-83
2023/02/11 10:06:23;;;;;;;1.52;1.30;;;;;;;4.26;42.97;103170.50;5092133;28;20040;-83
2023/02/11 10:09:15;;;;;;;5.72;3.08;;;;;;;4.39;43.09;103168.16;5067575;28;20110;-82
2023/02/11 10:11:59;;;;;;;3.97;2.70;;;;;;;4.29;41.89;103147.47;5076517;28;20028;-83
2023/02/11 10:14:51;;;;;;;3.80;2.85;;;;;;;4.34;42.13;103165.53;5092005;28;20040;-83
2023/02/11 10:17:29;;;;;;;3.22;2.75;;;;;;;4.40;43.44;103146.81;5091384;28;20036;-83
2023/02/11 10:20:10;;;;;;;7.15;4.40;;;;;;;4.51;42.70;103141.00;5076280;28;20415;-83
2023/02/11 10:22:39;;;;;;;5.43;3.65;;;;;;;4.49;42.22;103126.44;5075165;28;20107;-83
2023/02/11 10:25:26;;;;;;;4.90;2.75;;;;;;;4.57;42.96;103112.91;5091690;28;20556;-82
2023/02/11 10:27:52;;;;;;;3.47;2.85;;;;;;;4.74;43.16;103092.66;5089284;28;20438;-83
2023/02/11 10:30:20;;;;;;;6.65;3.25;;;;;;;5.06;42.47;103117.91;5074947;28;20035;-82
2023/02/11 10:32:52;;;;;;;5.43;3.95;;;;;;;5.14;42.37;103104.34;5092009;28;20060;-83
2023/02/11 10:35:20;;;;;;;3.80;3.40;;;;;;;5.29;43.44;103090.81;5075142;28;20032;-83
2023/02/11 10:37:45;;;;;;;5.55;4.55;;;;;;;5.24;42.01;103083.94;5075022;28;20037;-83
2023/02/11 10:40:22;;;;;;;3.15;2.38;;;;;;;5.32;40.98;103093.44;5092135;28;20032;-83
2023/02/11 10:42:53;;;;;;;4.22;3.10;;;;;;;5.29;41.98;103077.13;5087479;28;20126;-83
2023/02/11 10:45:26;;;;;;;5.60;3.05;;;;;;;5.14;42.21;103052.16;5088112;28;20495;-83
2023/02/11 10:47:52;;;;;;;10.20;3.88;;;;;;;5.21;40.53;103048.84;5071206;28;20123;-83
2023/02/11 10:50:21;;;;;;;4.88;3.05;;;;;;;5.32;40.80;103041.25;5088615;28;20028;-83
2023/02/11 10:52:46;;;;;;;4.57;3.17;;;;;;;5.33;40.75;103041.28;5088624;28;20032;-83
2023/02/11 10:55:22;;;;;;;3.33;2.58;;;;;;;5.19;41.22;103022.25;5088638;28;20090;-83
2023/02/11 10:57:58;;;;;;;2.05;1.92;;;;;;;5.59;41.24;103045.81;5087627;28;20031;-83
2023/02/11 11:00:41;;;;;;;4.07;3.10;;;;;;;5.69;40.57;103047.63;5088478;28;20165;-82
2023/02/11 11:03:23;;;;;;;6.15;3.92;;;;;;;5.84;40.09;103039.22;5088461;28;20028;-82
2023/02/11 11:05:54;;;;;;;6.85;3.90;;;;;;;5.81;40.09;103009.22;5087950;28;20055;-83
2023/02/11 11:08:19;;;;;;;7.00;4.18;;;;;;;6.01;40.14;103029.97;5071192;28;20056;-82
2023/02/11 11:11:07;;;;;;;4.15;3.08;;;;;;;5.92;38.64;103010.22;5071056;28;20028;-83
2023/02/11 11:13:37;;;;;;;7.05;3.25;;;;;;;6.03;38.73;102994.88;5071668;28;20024;-83
2023/02/11 11:16:11;;;;;;;6.85;3.25;;;;;;;6.37;39.01;103024.25;5088172;28;20040;-83
2023/02/11 11:18:37;;;;;;;4.63;3.13;;;;;;;6.34;38.06;103021.66;5072320;28;20154;-83
2023/02/11 11:21:14;;;;;;;8.18;2.83;;;;;;;6.32;38.43;103005.38;5071438;28;20081;-83
2023/02/11 11:23:40;;;;;;;5.63;3.90;;;;;;;6.45;38.60;103006.28;5070344;28;20020;-83
2023/02/11 11:26:10;;;;;;;6.45;3.40;;;;;;;6.54;38.66;102999.50;5070825;28;20032;-83
2023/02/11 11:28:57;;;;;;;5.05;3.85;;;;;;;6.57;37.00;102996.94;5087825;28;20032;-83
2023/02/11 11:31:34;;;;;;;4.03;3.10;;;;;;;6.54;37.01;102984.06;5054494;28;20029;-83
2023/02/11 11:34:02;;;;;;;1.90;1.70;;;;;;;6.47;36.28;102974.59;5087215;28;20028;-83
2023/02/11 11:36:45;;;;;;;4.68;1.67;;;;;;;6.45;35.81;102965.16;5071077;28;20025;-83